sensor_id;sensor_type;location;lat;lon;timestamp;P1;durP1;ratioP1;P2;durP2;ratioP2
64061;SDS011;50308;47.438;-1.528;2023-08-12T00:01:34;8.57;;;4.30;;
64061;SDS011;50308;47.438;-1.528;2023-08-12T00:04:00;7.20;;;3.55;;
64061;SDS011;50308;47.438;-1.528;2023-08-12T00:06:26;6.07;;;3.80;;
64061;SDS011;50308;47.438;-1.528;2023-08-12T00:08:53;6.47;;;3.78;;
64061;SDS011;50308;47.438;-1.528;2023-08-12T00:11:18;9.55;;;4.40;;
64061;SDS011;50308;47.438;-1.528;2023-08-12T00:13:44;8.45;;;3.80;;
64061;SDS011;50308;47.438;-1.528;2023-08-12T00:16:10;5.95;;;3.78;;
64061;SDS011;50308;47.438;-1.528;2023-08-12T00:18:36;8.93;;;4.47;;
64061;SDS011;50308;47.438;-1.528;2023-08-12T00:21:08;8.10;;;4.07;;
64061;SDS011;50308;47.438;-1.528;2023-08-12T00:23:38;8.43;;;3.85;;
64061;SDS011;50308;47.438;-1.528;2023-08-12T00:26:05;9.73;;;3.78;;
64061;SDS011;50308;47.438;-1.528;2023-08-12T00:28:34;6.85;;;3.80;;
64061;SDS011;50308;47.438;-1.528;2023-08-12T00:31:00;9.38;;;4.45;;
64061;SDS011;50308;47.438;-1.528;2023-08-12T00:33:25;11.70;;;5.35;;
64061;SDS011;50308;47.438;-1.528;2023-08-12T00:35:51;9.77;;;4.50;;
64061;SDS011;50308;47.438;-1.528;2023-08-12T00:38:17;11.50;;;4.32;;
64061;SDS011;50308;47.438;-1.528;2023-08-12T00:40:42;9.85;;;4.22;;
64061;SDS011;50308;47.438;-1.528;2023-08-12T00:43:08;7.70;;;4.38;;
64061;SDS011;50308;47.438;-1.528;2023-08-12T00:45:34;8.77;;;4.03;;
64061;SDS011;50308;47.438;-1.528;2023-08-12T00:48:01;8.45;;;4.18;;
64061;SDS011;50308;47.438;-1.528;2023-08-12T00:50:27;11.23;;;4.22;;
64061;SDS011;50308;47.438;-1.528;2023-08-12T00:52:54;7.07;;;3.45;;
64061;SDS011;50308;47.438;-1.528;2023-08-12T00:55:20;7.85;;;3.65;;
64061;SDS011;50308;47.438;-1.528;2023-08-12T00:57:46;8.68;;;3.63;;
64061;SDS011;50308;47.438;-1.528;2023-08-12T01:00:12;7.65;;;3.90;;
64061;SDS011;50308;47.438;-1.528;2023-08-12T01:02:39;5.95;;;3.17;;
64061;SDS011;50308;47.438;-1.528;2023-08-12T01:05:09;5.40;;;2.75;;
64061;SDS011;50308;47.438;-1.528;2023-08-12T01:07:35;4.93;;;3.20;;
64061;SDS011;50308;47.438;-1.528;2023-08-12T01:10:00;4.60;;;2.67;;
64061;SDS011;50308;47.438;-1.528;2023-08-12T01:12:28;5.53;;;2.60;;
64061;SDS011;50308;47.438;-1.528;2023-08-12T01:15:01;7.15;;;3.03;;
64061;SDS011;50308;47.438;-1.528;2023-08-12T01:17:32;4.30;;;2.30;;
64061;SDS011;50308;47.438;-1.528;2023-08-12T01:20:01;4.38;;;2.38;;
64061;SDS011;50308;47.438;-1.528;2023-08-12T01:22:48;6.18;;;2.78;;
64061;SDS011;50308;47.438;-1.528;2023-08-12T01:25:15;4.15;;;2.83;;
64061;SDS011;50308;47.438;-1.528;2023-08-12T01:27:40;3.42;;;1.95;;
64061;SDS011;50308;47.438;-1.528;2023-08-12T01:30:06;3.88;;;2.15;;
64061;SDS011;50308;47.438;-1.528;2023-08-12T01:37:54;5.03;;;2.15;;
64061;SDS011;50308;47.438;-1.528;2023-08-12T01:40:24;3.78;;;2.05;;
64061;SDS011;50308;47.438;-1.528;2023-08-12T01:42:51;3.55;;;1.92;;
64061;SDS011;50308;47.438;-1.528;2023-08-12T01:45:18;4.18;;;2.25;;
64061;SDS011;50308;47.438;-1.528;2023-08-12T01:47:44;4.30;;;1.92;;
64061;SDS011;50308;47.438;-1.528;2023-08-12T01:50:10;4.68;;;2.85;;
64061;SDS011;50308;47.438;-1.528;2023-08-12T01:52:36;3.75;;;2.85;;
64061;SDS011;50308;47.438;-1.528;2023-08-12T01:55:01;5.03;;;3.13;;
64061;SDS011;50308;47.438;-1.528;2023-08-12T01:57:27;5.40;;;3.35;;
64061;SDS011;50308;47.438;-1.528;2023-08-12T01:59:53;5.22;;;3.42;;
64061;SDS011;50308;47.438;-1.528;2023-08-12T02:02:19;7.55;;;4.03;;
64061;SDS011;50308;47.438;-1.528;2023-08-12T02:04:44;5.75;;;3.90;;
64061;SDS011;50308;47.438;-1.528;2023-08-12T02:07:10;10.50;;;5.03;;
64061;SDS011;50308;47.438;-1.528;2023-08-12T02:09:36;8.40;;;5.05;;
64061;SDS011;50308;47.438;-1.528;2023-08-12T02:12:02;7.60;;;5.22;;
64061;SDS011;50308;47.438;-1.528;2023-08-12T02:14:27;8.88;;;5.97;;
64061;SDS011;50308;47.438;-1.528;2023-08-12T02:16:53;9.07;;;6.15;;
64061;SDS011;50308;47.438;-1.528;2023-08-12T02:19:19;10.98;;;5.93;;
64061;SDS011;50308;47.438;-1.528;2023-08-12T02:21:44;9.32;;;6.03;;
64061;SDS011;50308;47.438;-1.528;2023-08-12T02:24:10;7.10;;;4.88;;
64061;SDS011;50308;47.438;-1.528;2023-08-12T02:26:36;8.98;;;5.40;;
64061;SDS011;50308;47.438;-1.528;2023-08-12T02:29:03;8.85;;;5.25;;
64061;SDS011;50308;47.438;-1.528;2023-08-12T02:31:29;7.45;;;5.53;;
64061;SDS011;50308;47.438;-1.528;2023-08-12T02:33:54;7.97;;;4.85;;
64061;SDS011;50308;47.438;-1.528;2023-08-12T02:36:20;7.15;;;4.50;;
64061;SDS011;50308;47.438;-1.528;2023-08-12T02:38:46;8.27;;;4.80;;
64061;SDS011;50308;47.438;-1.528;2023-08-12T02:41:11;7.13;;;4.30;;
64061;SDS011;50308;47.438;-1.528;2023-08-12T02:43:37;5.95;;;4.07;;
64061;SDS011;50308;47.438;-1.528;2023-08-12T02:46:03;5.82;;;4.10;;
64061;SDS011;50308;47.438;-1.528;2023-08-12T02:48:28;5.72;;;3.17;;
64061;SDS011;50308;47.438;-1.528;2023-08-12T02:50:54;6.72;;;3.38;;
64061;SDS011;50308;47.438;-1.528;2023-08-12T02:53:19;5.57;;;3.70;;
64061;SDS011;50308;47.438;-1.528;2023-08-12T02:55:45;4.47;;;2.65;;
64061;SDS011;50308;47.438;-1.528;2023-08-12T02:58:11;7.85;;;3.55;;
64061;SDS011;50308;47.438;-1.528;2023-08-12T03:00:36;5.45;;;2.45;;
64061;SDS011;50308;47.438;-1.528;2023-08-12T03:03:02;4.90;;;2.33;;
64061;SDS011;50308;47.438;-1.528;2023-08-12T03:05:30;3.45;;;1.95;;
64061;SDS011;50308;47.438;-1.528;2023-08-12T03:07:56;3.97;;;1.98;;
64061;SDS011;50308;47.438;-1.528;2023-08-12T03:10:22;3.42;;;2.25;;
64061;SDS011;50308;47.438;-1.528;2023-08-12T03:12:48;3.35;;;1.88;;
64061;SDS011;50308;47.438;-1.528;2023-08-12T03:15:13;2.35;;;1.60;;
64061;SDS011;50308;47.438;-1.528;2023-08-12T03:17:39;5.65;;;1.80;;
64061;SDS011;50308;47.438;-1.528;2023-08-12T03:20:06;3.30;;;1.63;;
64061;SDS011;50308;47.438;-1.528;2023-08-12T03:22:33;3.60;;;1.80;;
64061;SDS011;50308;47.438;-1.528;2023-08-12T03:25:00;5.88;;;1.60;;
64061;SDS011;50308;47.438;-1.528;2023-08-12T03:27:26;3.17;;;2.00;;
64061;SDS011;50308;47.438;-1.528;2023-08-12T03:29:52;4.72;;;1.83;;
64061;SDS011;50308;47.438;-1.528;2023-08-12T03:32:17;3.50;;;1.70;;
64061;SDS011;50308;47.438;-1.528;2023-08-12T03:34:43;4.47;;;1.70;;
64061;SDS011;50308;47.438;-1.528;2023-08-12T03:37:08;4.50;;;1.63;;
64061;SDS011;50308;47.438;-1.528;2023-08-12T03:39:34;4.18;;;1.55;;
64061;SDS011;50308;47.438;-1.528;2023-08-12T03:42:00;4.57;;;1.80;;
64061;SDS011;50308;47.438;-1.528;2023-08-12T03:44:25;6.13;;;1.50;;
64061;SDS011;50308;47.438;-1.528;2023-08-12T03:46:51;5.60;;;1.70;;
64061;SDS011;50308;47.438;-1.528;2023-08-12T03:49:17;2.20;;;1.48;;
64061;SDS011;50308;47.438;-1.528;2023-08-12T03:51:42;6.72;;;2.03;;
64061;SDS011;50308;47.438;-1.528;2023-08-12T03:54:08;61.75;;;5.93;;
64061;SDS011;50308;47.438;-1.528;2023-08-12T03:56:34;9.50;;;1.98;;
64061;SDS011;50308;47.438;-1.528;2023-08-12T03:58:59;8.07;;;1.80;;
64061;SDS011;50308;47.438;-1.528;2023-08-12T04:01:25;6.57;;;1.70;;
64061;SDS011;50308;47.438;-1.528;2023-08-12T04:03:50;6.90;;;2.03;;
64061;SDS011;50308;47.438;-1.528;2023-08-12T04:06:16;9.65;;;1.80;;
64061;SDS011;50308;47.438;-1.528;2023-08-12T04:08:42;5.75;;;2.10;;
64061;SDS011;50308;47.438;-1.528;2023-08-12T04:11:07;5.30;;;1.85;;
64061;SDS011;50308;47.438;-1.528;2023-08-12T04:13:33;5.18;;;1.55;;
64061;SDS011;50308;47.438;-1.528;2023-08-12T04:15:58;4.13;;;1.58;;
64061;SDS011;50308;47.438;-1.528;2023-08-12T04:18:24;2.53;;;1.30;;
64061;SDS011;50308;47.438;-1.528;2023-08-12T04:20:50;3.42;;;1.42;;
64061;SDS011;50308;47.438;-1.528;2023-08-12T04:23:17;7.43;;;1.55;;
64061;SDS011;50308;47.438;-1.528;2023-08-12T04:25:46;4.35;;;1.50;;
64061;SDS011;50308;47.438;-1.528;2023-08-12T04:28:13;3.90;;;1.33;;
64061;SDS011;50308;47.438;-1.528;2023-08-12T04:30:40;3.58;;;1.30;;
64061;SDS011;50308;47.438;-1.528;2023-08-12T04:33:13;2.67;;;1.40;;
64061;SDS011;50308;47.438;-1.528;2023-08-12T04:35:40;3.15;;;1.20;;
64061;SDS011;50308;47.438;-1.528;2023-08-12T04:38:06;2.10;;;1.33;;
64061;SDS011;50308;47.438;-1.528;2023-08-12T04:40:32;2.78;;;1.42;;
64061;SDS011;50308;47.438;-1.528;2023-08-12T04:42:58;4.93;;;1.40;;
64061;SDS011;50308;47.438;-1.528;2023-08-12T04:45:24;4.65;;;1.38;;
64061;SDS011;50308;47.438;-1.528;2023-08-12T04:47:50;3.28;;;1.42;;
64061;SDS011;50308;47.438;-1.528;2023-08-12T04:50:16;2.90;;;1.45;;
64061;SDS011;50308;47.438;-1.528;2023-08-12T04:52:42;4.40;;;1.30;;
64061;SDS011;50308;47.438;-1.528;2023-08-12T04:55:07;3.20;;;1.35;;
64061;SDS011;50308;47.438;-1.528;2023-08-12T04:57:35;5.68;;;1.42;;
64061;SDS011;50308;47.438;-1.528;2023-08-12T05:00:01;4.82;;;2.17;;
64061;SDS011;50308;47.438;-1.528;2023-08-12T05:02:28;3.90;;;1.40;;
64061;SDS011;50308;47.438;-1.528;2023-08-12T05:04:53;3.38;;;1.17;;
64061;SDS011;50308;47.438;-1.528;2023-08-12T05:07:19;4.43;;;1.90;;
64061;SDS011;50308;47.438;-1.528;2023-08-12T05:09:45;4.10;;;1.60;;
64061;SDS011;50308;47.438;-1.528;2023-08-12T05:12:11;4.53;;;1.70;;
64061;SDS011;50308;47.438;-1.528;2023-08-12T05:14:37;4.20;;;1.55;;
64061;SDS011;50308;47.438;-1.528;2023-08-12T05:17:03;3.03;;;1.65;;
64061;SDS011;50308;47.438;-1.528;2023-08-12T05:19:29;4.60;;;1.42;;
64061;SDS011;50308;47.438;-1.528;2023-08-12T05:21:55;6.65;;;1.58;;
64061;SDS011;50308;47.438;-1.528;2023-08-12T05:24:21;4.80;;;1.80;;
64061;SDS011;50308;47.438;-1.528;2023-08-12T05:26:47;4.75;;;1.50;;
64061;SDS011;50308;47.438;-1.528;2023-08-12T05:29:12;4.32;;;1.30;;
64061;SDS011;50308;47.438;-1.528;2023-08-12T05:31:38;5.60;;;1.77;;
64061;SDS011;50308;47.438;-1.528;2023-08-12T05:34:04;4.88;;;1.30;;
64061;SDS011;50308;47.438;-1.528;2023-08-12T05:36:30;3.08;;;1.30;;
64061;SDS011;50308;47.438;-1.528;2023-08-12T05:38:55;2.70;;;1.50;;
64061;SDS011;50308;47.438;-1.528;2023-08-12T05:41:21;4.80;;;1.25;;
64061;SDS011;50308;47.438;-1.528;2023-08-12T05:43:47;3.92;;;1.45;;
64061;SDS011;50308;47.438;-1.528;2023-08-12T05:46:13;2.05;;;1.27;;
64061;SDS011;50308;47.438;-1.528;2023-08-12T05:48:39;3.88;;;1.35;;
64061;SDS011;50308;47.438;-1.528;2023-08-12T05:51:05;4.70;;;1.50;;
64061;SDS011;50308;47.438;-1.528;2023-08-12T05:53:30;3.20;;;1.30;;
64061;SDS011;50308;47.438;-1.528;2023-08-12T05:55:57;1.88;;;1.02;;
64061;SDS011;50308;47.438;-1.528;2023-08-12T05:58:23;6.60;;;1.58;;
64061;SDS011;50308;47.438;-1.528;2023-08-12T06:00:49;6.53;;;1.77;;
64061;SDS011;50308;47.438;-1.528;2023-08-12T06:03:15;4.82;;;1.50;;
64061;SDS011;50308;47.438;-1.528;2023-08-12T06:05:41;4.53;;;1.20;;
64061;SDS011;50308;47.438;-1.528;2023-08-12T06:08:09;3.85;;;1.40;;
64061;SDS011;50308;47.438;-1.528;2023-08-12T06:10:35;4.63;;;1.27;;
64061;SDS011;50308;47.438;-1.528;2023-08-12T06:13:00;5.15;;;1.70;;
64061;SDS011;50308;47.438;-1.528;2023-08-12T06:15:26;5.07;;;1.63;;
64061;SDS011;50308;47.438;-1.528;2023-08-12T06:17:52;2.38;;;1.17;;
64061;SDS011;50308;47.438;-1.528;2023-08-12T06:20:17;3.65;;;1.23;;
64061;SDS011;50308;47.438;-1.528;2023-08-12T06:22:43;6.28;;;1.42;;
64061;SDS011;50308;47.438;-1.528;2023-08-12T06:25:09;6.22;;;1.60;;
64061;SDS011;50308;47.438;-1.528;2023-08-12T06:27:34;4.53;;;1.40;;
64061;SDS011;50308;47.438;-1.528;2023-08-12T06:30:00;4.00;;;1.70;;
64061;SDS011;50308;47.438;-1.528;2023-08-12T06:32:26;7.18;;;1.95;;
64061;SDS011;50308;47.438;-1.528;2023-08-12T06:34:51;4.30;;;1.67;;
64061;SDS011;50308;47.438;-1.528;2023-08-12T06:37:17;5.22;;;1.90;;
64061;SDS011;50308;47.438;-1.528;2023-08-12T06:39:42;5.35;;;2.40;;
64061;SDS011;50308;47.438;-1.528;2023-08-12T06:42:08;7.20;;;2.40;;
64061;SDS011;50308;47.438;-1.528;2023-08-12T06:44:34;6.18;;;2.50;;
64061;SDS011;50308;47.438;-1.528;2023-08-12T06:46:59;7.80;;;2.45;;
64061;SDS011;50308;47.438;-1.528;2023-08-12T06:49:25;7.53;;;2.33;;
64061;SDS011;50308;47.438;-1.528;2023-08-12T06:51:50;6.15;;;2.30;;
64061;SDS011;50308;47.438;-1.528;2023-08-12T06:54:16;7.22;;;2.30;;
64061;SDS011;50308;47.438;-1.528;2023-08-12T06:56:42;8.27;;;2.40;;
64061;SDS011;50308;47.438;-1.528;2023-08-12T06:59:08;6.65;;;2.53;;
64061;SDS011;50308;47.438;-1.528;2023-08-12T07:01:33;8.70;;;2.45;;
64061;SDS011;50308;47.438;-1.528;2023-08-12T07:03:59;7.28;;;2.35;;
64061;SDS011;50308;47.438;-1.528;2023-08-12T07:06:25;11.57;;;2.80;;
64061;SDS011;50308;47.438;-1.528;2023-08-12T07:08:50;7.60;;;3.03;;
64061;SDS011;50308;47.438;-1.528;2023-08-12T07:11:16;11.52;;;2.58;;
64061;SDS011;50308;47.438;-1.528;2023-08-12T07:13:42;10.27;;;2.75;;
64061;SDS011;50308;47.438;-1.528;2023-08-12T07:16:11;20.60;;;3.50;;
64061;SDS011;50308;47.438;-1.528;2023-08-12T07:18:37;8.95;;;3.40;;
64061;SDS011;50308;47.438;-1.528;2023-08-12T07:21:02;11.48;;;3.58;;
64061;SDS011;50308;47.438;-1.528;2023-08-12T07:23:28;5.53;;;3.03;;
64061;SDS011;50308;47.438;-1.528;2023-08-12T07:25:54;14.52;;;3.50;;
64061;SDS011;50308;47.438;-1.528;2023-08-12T07:28:20;11.18;;;3.83;;
64061;SDS011;50308;47.438;-1.528;2023-08-12T07:30:46;10.68;;;3.70;;
64061;SDS011;50308;47.438;-1.528;2023-08-12T07:33:12;12.43;;;3.60;;
64061;SDS011;50308;47.438;-1.528;2023-08-12T07:35:38;10.45;;;3.28;;
64061;SDS011;50308;47.438;-1.528;2023-08-12T07:38:04;8.00;;;3.35;;
64061;SDS011;50308;47.438;-1.528;2023-08-12T07:40:30;11.90;;;3.50;;
64061;SDS011;50308;47.438;-1.528;2023-08-12T07:42:55;9.20;;;3.90;;
64061;SDS011;50308;47.438;-1.528;2023-08-12T07:45:21;9.98;;;3.72;;
64061;SDS011;50308;47.438;-1.528;2023-08-12T07:47:48;12.32;;;4.10;;
64061;SDS011;50308;47.438;-1.528;2023-08-12T07:50:14;9.93;;;3.38;;
64061;SDS011;50308;47.438;-1.528;2023-08-12T07:52:40;8.27;;;4.05;;
64061;SDS011;50308;47.438;-1.528;2023-08-12T07:55:06;13.07;;;4.22;;
64061;SDS011;50308;47.438;-1.528;2023-08-12T07:57:32;12.63;;;4.47;;
64061;SDS011;50308;47.438;-1.528;2023-08-12T07:59:57;13.68;;;4.10;;
64061;SDS011;50308;47.438;-1.528;2023-08-12T08:02:23;12.50;;;4.10;;
64061;SDS011;50308;47.438;-1.528;2023-08-12T08:04:49;10.32;;;3.95;;
64061;SDS011;50308;47.438;-1.528;2023-08-12T08:07:17;11.10;;;4.20;;
64061;SDS011;50308;47.438;-1.528;2023-08-12T08:09:43;13.68;;;5.13;;
64061;SDS011;50308;47.438;-1.528;2023-08-12T08:12:09;14.52;;;4.15;;
64061;SDS011;50308;47.438;-1.528;2023-08-12T08:14:35;10.50;;;3.80;;
64061;SDS011;50308;47.438;-1.528;2023-08-12T08:17:01;12.65;;;4.40;;
64061;SDS011;50308;47.438;-1.528;2023-08-12T08:19:28;13.68;;;4.00;;
64061;SDS011;50308;47.438;-1.528;2023-08-12T08:21:54;12.55;;;4.28;;
64061;SDS011;50308;47.438;-1.528;2023-08-12T08:24:19;17.35;;;4.60;;
64061;SDS011;50308;47.438;-1.528;2023-08-12T08:26:45;11.68;;;4.38;;
64061;SDS011;50308;47.438;-1.528;2023-08-12T08:29:12;12.10;;;4.20;;
64061;SDS011;50308;47.438;-1.528;2023-08-12T08:31:38;12.75;;;4.25;;
64061;SDS011;50308;47.438;-1.528;2023-08-12T08:34:04;19.65;;;4.90;;
64061;SDS011;50308;47.438;-1.528;2023-08-12T08:36:29;19.00;;;4.70;;
64061;SDS011;50308;47.438;-1.528;2023-08-12T08:38:55;11.65;;;3.90;;
64061;SDS011;50308;47.438;-1.528;2023-08-12T08:41:21;13.32;;;4.75;;
64061;SDS011;50308;47.438;-1.528;2023-08-12T08:43:50;13.88;;;4.25;;
64061;SDS011;50308;47.438;-1.528;2023-08-12T08:46:20;18.80;;;5.43;;
64061;SDS011;50308;47.438;-1.528;2023-08-12T08:48:46;15.25;;;4.63;;
64061;SDS011;50308;47.438;-1.528;2023-08-12T08:51:13;17.25;;;5.32;;
64061;SDS011;50308;47.438;-1.528;2023-08-12T08:53:40;16.40;;;4.22;;
64061;SDS011;50308;47.438;-1.528;2023-08-12T08:56:06;17.10;;;4.82;;
64061;SDS011;50308;47.438;-1.528;2023-08-12T08:58:33;19.52;;;5.35;;
64061;SDS011;50308;47.438;-1.528;2023-08-12T09:00:59;16.10;;;4.50;;
64061;SDS011;50308;47.438;-1.528;2023-08-12T09:03:25;17.85;;;4.80;;
64061;SDS011;50308;47.438;-1.528;2023-08-12T09:05:51;23.48;;;5.45;;
64061;SDS011;50308;47.438;-1.528;2023-08-12T09:08:20;22.52;;;5.68;;
64061;SDS011;50308;47.438;-1.528;2023-08-12T09:10:46;26.85;;;5.05;;
64061;SDS011;50308;47.438;-1.528;2023-08-12T09:13:13;19.17;;;4.68;;
64061;SDS011;50308;47.438;-1.528;2023-08-12T09:15:40;22.70;;;4.47;;
64061;SDS011;50308;47.438;-1.528;2023-08-12T09:18:06;23.08;;;5.15;;
64061;SDS011;50308;47.438;-1.528;2023-08-12T09:20:32;17.08;;;5.57;;
64061;SDS011;50308;47.438;-1.528;2023-08-12T09:22:58;24.92;;;5.38;;
64061;SDS011;50308;47.438;-1.528;2023-08-12T09:25:28;18.17;;;5.63;;
64061;SDS011;50308;47.438;-1.528;2023-08-12T09:28:00;20.75;;;4.57;;
64061;SDS011;50308;47.438;-1.528;2023-08-12T09:30:29;28.65;;;5.18;;
64061;SDS011;50308;47.438;-1.528;2023-08-12T09:32:59;19.25;;;5.22;;
64061;SDS011;50308;47.438;-1.528;2023-08-12T09:35:31;21.20;;;5.30;;
64061;SDS011;50308;47.438;-1.528;2023-08-12T09:38:05;18.38;;;6.05;;
64061;SDS011;50308;47.438;-1.528;2023-08-12T09:40:33;21.60;;;5.70;;
64061;SDS011;50308;47.438;-1.528;2023-08-12T09:43:00;16.10;;;5.18;;
64061;SDS011;50308;47.438;-1.528;2023-08-12T09:45:26;17.33;;;4.60;;
64061;SDS011;50308;47.438;-1.528;2023-08-12T09:47:52;16.17;;;4.50;;
64061;SDS011;50308;47.438;-1.528;2023-08-12T09:50:21;17.38;;;4.15;;
64061;SDS011;50308;47.438;-1.528;2023-08-12T09:52:48;20.98;;;4.32;;
64061;SDS011;50308;47.438;-1.528;2023-08-12T09:55:15;15.13;;;3.83;;
64061;SDS011;50308;47.438;-1.528;2023-08-12T09:57:43;13.10;;;4.47;;
64061;SDS011;50308;47.438;-1.528;2023-08-12T10:00:09;13.02;;;4.47;;
64061;SDS011;50308;47.438;-1.528;2023-08-12T10:02:41;16.98;;;3.85;;
64061;SDS011;50308;47.438;-1.528;2023-08-12T10:05:12;15.27;;;4.63;;
64061;SDS011;50308;47.438;-1.528;2023-08-12T10:07:43;15.98;;;3.95;;
64061;SDS011;50308;47.438;-1.528;2023-08-12T10:10:10;15.20;;;3.85;;
64061;SDS011;50308;47.438;-1.528;2023-08-12T10:12:37;14.55;;;5.13;;
64061;SDS011;50308;47.438;-1.528;2023-08-12T10:15:05;12.27;;;4.10;;
64061;SDS011;50308;47.438;-1.528;2023-08-12T10:17:33;10.82;;;3.70;;
64061;SDS011;50308;47.438;-1.528;2023-08-12T10:20:00;16.98;;;4.00;;
64061;SDS011;50308;47.438;-1.528;2023-08-12T10:22:29;15.87;;;3.57;;
64061;SDS011;50308;47.438;-1.528;2023-08-12T10:24:59;14.05;;;3.60;;
64061;SDS011;50308;47.438;-1.528;2023-08-12T10:27:27;10.55;;;3.88;;
64061;SDS011;50308;47.438;-1.528;2023-08-12T10:29:57;13.82;;;3.53;;
64061;SDS011;50308;47.438;-1.528;2023-08-12T10:32:23;16.13;;;3.92;;
64061;SDS011;50308;47.438;-1.528;2023-08-12T10:34:55;18.65;;;3.65;;
64061;SDS011;50308;47.438;-1.528;2023-08-12T10:37:22;14.27;;;3.80;;
64061;SDS011;50308;47.438;-1.528;2023-08-12T10:39:55;9.02;;;3.70;;
64061;SDS011;50308;47.438;-1.528;2023-08-12T10:45:06;9.43;;;3.45;;
64061;SDS011;50308;47.438;-1.528;2023-08-12T10:47:32;11.93;;;3.90;;
64061;SDS011;50308;47.438;-1.528;2023-08-12T10:49:59;13.32;;;3.78;;
64061;SDS011;50308;47.438;-1.528;2023-08-12T10:52:30;12.35;;;3.90;;
64061;SDS011;50308;47.438;-1.528;2023-08-12T10:55:16;12.32;;;3.40;;
64061;SDS011;50308;47.438;-1.528;2023-08-12T10:57:46;12.23;;;2.75;;
64061;SDS011;50308;47.438;-1.528;2023-08-12T11:00:16;7.40;;;3.00;;
64061;SDS011;50308;47.438;-1.528;2023-08-12T11:02:48;13.13;;;3.17;;
64061;SDS011;50308;47.438;-1.528;2023-08-12T11:05:15;12.32;;;3.67;;
64061;SDS011;50308;47.438;-1.528;2023-08-12T11:07:45;9.23;;;3.20;;
64061;SDS011;50308;47.438;-1.528;2023-08-12T11:10:24;13.70;;;3.20;;
64061;SDS011;50308;47.438;-1.528;2023-08-12T11:15:17;10.15;;;3.40;;
64061;SDS011;50308;47.438;-1.528;2023-08-12T11:17:45;11.65;;;3.17;;
64061;SDS011;50308;47.438;-1.528;2023-08-12T11:20:12;13.02;;;3.55;;
64061;SDS011;50308;47.438;-1.528;2023-08-12T11:22:44;19.88;;;3.85;;
64061;SDS011;50308;47.438;-1.528;2023-08-12T11:25:11;12.48;;;3.22;;
64061;SDS011;50308;47.438;-1.528;2023-08-12T11:27:39;16.42;;;3.70;;
64061;SDS011;50308;47.438;-1.528;2023-08-12T11:30:15;11.05;;;2.67;;
64061;SDS011;50308;47.438;-1.528;2023-08-12T11:32:43;14.73;;;3.22;;
64061;SDS011;50308;47.438;-1.528;2023-08-12T11:35:13;13.07;;;3.40;;
64061;SDS011;50308;47.438;-1.528;2023-08-12T11:37:40;9.95;;;2.95;;
64061;SDS011;50308;47.438;-1.528;2023-08-12T11:40:08;13.23;;;3.45;;
64061;SDS011;50308;47.438;-1.528;2023-08-12T11:42:35;16.67;;;3.78;;
64061;SDS011;50308;47.438;-1.528;2023-08-12T11:45:03;11.63;;;3.17;;
64061;SDS011;50308;47.438;-1.528;2023-08-12T11:47:29;9.60;;;2.90;;
64061;SDS011;50308;47.438;-1.528;2023-08-12T11:49:55;14.18;;;3.08;;
64061;SDS011;50308;47.438;-1.528;2023-08-12T11:52:20;9.07;;;2.85;;
64061;SDS011;50308;47.438;-1.528;2023-08-12T11:54:48;13.63;;;3.28;;
64061;SDS011;50308;47.438;-1.528;2023-08-12T11:57:15;11.57;;;3.00;;
64061;SDS011;50308;47.438;-1.528;2023-08-12T11:59:42;13.82;;;3.40;;
64061;SDS011;50308;47.438;-1.528;2023-08-12T12:02:07;13.73;;;3.10;;
64061;SDS011;50308;47.438;-1.528;2023-08-12T12:04:35;14.80;;;3.70;;
64061;SDS011;50308;47.438;-1.528;2023-08-12T12:07:00;12.35;;;3.78;;
64061;SDS011;50308;47.438;-1.528;2023-08-12T12:09:31;11.68;;;3.20;;
64061;SDS011;50308;47.438;-1.528;2023-08-12T12:11:57;10.15;;;3.05;;
64061;SDS011;50308;47.438;-1.528;2023-08-12T12:14:24;9.10;;;2.90;;
64061;SDS011;50308;47.438;-1.528;2023-08-12T12:16:50;8.25;;;2.63;;
64061;SDS011;50308;47.438;-1.528;2023-08-12T12:19:22;9.50;;;3.20;;
64061;SDS011;50308;47.438;-1.528;2023-08-12T12:21:52;8.43;;;2.63;;
64061;SDS011;50308;47.438;-1.528;2023-08-12T12:24:19;10.38;;;3.30;;
64061;SDS011;50308;47.438;-1.528;2023-08-12T12:26:45;8.23;;;2.72;;
64061;SDS011;50308;47.438;-1.528;2023-08-12T12:29:14;8.93;;;2.90;;
64061;SDS011;50308;47.438;-1.528;2023-08-12T12:31:40;7.80;;;3.00;;
64061;SDS011;50308;47.438;-1.528;2023-08-12T12:34:07;8.63;;;2.53;;
64061;SDS011;50308;47.438;-1.528;2023-08-12T12:36:35;9.55;;;3.20;;
64061;SDS011;50308;47.438;-1.528;2023-08-12T12:39:03;12.85;;;3.47;;
64061;SDS011;50308;47.438;-1.528;2023-08-12T12:41:29;13.50;;;3.30;;
64061;SDS011;50308;47.438;-1.528;2023-08-12T12:43:55;13.15;;;3.25;;
64061;SDS011;50308;47.438;-1.528;2023-08-12T12:46:21;11.82;;;2.65;;
64061;SDS011;50308;47.438;-1.528;2023-08-12T12:48:47;12.50;;;3.08;;
64061;SDS011;50308;47.438;-1.528;2023-08-12T12:51:12;8.10;;;2.85;;
64061;SDS011;50308;47.438;-1.528;2023-08-12T12:53:38;8.85;;;2.70;;
64061;SDS011;50308;47.438;-1.528;2023-08-12T12:56:05;12.35;;;3.13;;
64061;SDS011;50308;47.438;-1.528;2023-08-12T12:58:31;12.05;;;2.92;;
64061;SDS011;50308;47.438;-1.528;2023-08-12T13:01:02;9.88;;;3.22;;
64061;SDS011;50308;47.438;-1.528;2023-08-12T13:03:29;10.70;;;2.95;;
64061;SDS011;50308;47.438;-1.528;2023-08-12T13:05:55;11.13;;;3.25;;
64061;SDS011;50308;47.438;-1.528;2023-08-12T13:08:21;9.90;;;3.33;;
64061;SDS011;50308;47.438;-1.528;2023-08-12T13:10:47;14.40;;;3.25;;
64061;SDS011;50308;47.438;-1.528;2023-08-12T13:13:14;7.50;;;2.55;;
64061;SDS011;50308;47.438;-1.528;2023-08-12T13:15:43;7.83;;;2.33;;
64061;SDS011;50308;47.438;-1.528;2023-08-12T13:18:10;11.98;;;2.60;;
64061;SDS011;50308;47.438;-1.528;2023-08-12T13:20:37;10.45;;;2.88;;
64061;SDS011;50308;47.438;-1.528;2023-08-12T13:23:04;8.48;;;2.72;;
64061;SDS011;50308;47.438;-1.528;2023-08-12T13:25:30;10.27;;;3.28;;
64061;SDS011;50308;47.438;-1.528;2023-08-12T13:27:58;12.20;;;2.85;;
64061;SDS011;50308;47.438;-1.528;2023-08-12T13:30:25;9.77;;;2.88;;
64061;SDS011;50308;47.438;-1.528;2023-08-12T13:32:51;10.20;;;2.50;;
64061;SDS011;50308;47.438;-1.528;2023-08-12T13:35:17;10.20;;;2.95;;
64061;SDS011;50308;47.438;-1.528;2023-08-12T13:37:43;9.20;;;2.50;;
64061;SDS011;50308;47.438;-1.528;2023-08-12T13:40:08;10.85;;;2.47;;
64061;SDS011;50308;47.438;-1.528;2023-08-12T13:42:36;8.48;;;2.78;;
64061;SDS011;50308;47.438;-1.528;2023-08-12T13:45:02;9.50;;;2.25;;
64061;SDS011;50308;47.438;-1.528;2023-08-12T13:47:29;9.50;;;2.80;;
64061;SDS011;50308;47.438;-1.528;2023-08-12T13:49:55;8.90;;;2.25;;
64061;SDS011;50308;47.438;-1.528;2023-08-12T13:52:21;8.13;;;2.38;;
64061;SDS011;50308;47.438;-1.528;2023-08-12T13:54:47;11.48;;;2.55;;
64061;SDS011;50308;47.438;-1.528;2023-08-12T13:57:12;12.43;;;2.67;;
64061;SDS011;50308;47.438;-1.528;2023-08-12T13:59:38;10.85;;;2.90;;
64061;SDS011;50308;47.438;-1.528;2023-08-12T14:02:05;9.10;;;2.25;;
64061;SDS011;50308;47.438;-1.528;2023-08-12T14:04:31;8.05;;;2.45;;
64061;SDS011;50308;47.438;-1.528;2023-08-12T14:06:57;10.20;;;2.45;;
64061;SDS011;50308;47.438;-1.528;2023-08-12T14:09:22;10.75;;;2.15;;
64061;SDS011;50308;47.438;-1.528;2023-08-12T14:11:48;10.82;;;2.60;;
64061;SDS011;50308;47.438;-1.528;2023-08-12T14:14:14;7.75;;;2.35;;
64061;SDS011;50308;47.438;-1.528;2023-08-12T14:16:40;7.63;;;2.17;;
64061;SDS011;50308;47.438;-1.528;2023-08-12T14:19:06;9.85;;;2.30;;
64061;SDS011;50308;47.438;-1.528;2023-08-12T14:21:32;7.72;;;1.92;;
64061;SDS011;50308;47.438;-1.528;2023-08-12T14:23:57;6.25;;;1.77;;
64061;SDS011;50308;47.438;-1.528;2023-08-12T14:26:23;7.75;;;2.67;;
64061;SDS011;50308;47.438;-1.528;2023-08-12T14:28:49;11.40;;;2.50;;
64061;SDS011;50308;47.438;-1.528;2023-08-12T14:31:14;11.68;;;2.40;;
64061;SDS011;50308;47.438;-1.528;2023-08-12T14:33:40;12.48;;;2.25;;
64061;SDS011;50308;47.438;-1.528;2023-08-12T14:36:06;9.45;;;2.90;;